createdAt,value
2018-03-14T00:01:13.287Z,83.60
2018-03-14T00:03:41.039Z,83.40
2018-03-14T00:06:08.755Z,83.40
2018-03-14T00:08:36.471Z,83.50
2018-03-14T00:11:06.738Z,83.30
2018-03-14T00:13:38.659Z,83.20
2018-03-14T00:16:08.527Z,84.10
2018-03-14T00:18:42.837Z,83.20
2018-03-14T00:21:20.996Z,83.30
2018-03-14T00:23:51.670Z,83.10
2018-03-14T00:26:23.520Z,83.10
2018-03-14T00:28:53.797Z,83.20
2018-03-14T00:31:27.219Z,83.10
2018-03-14T00:34:04.491Z,83.10
2018-03-14T00:40:00.476Z,83.00
2018-03-14T00:42:28.919Z,82.60
2018-03-14T00:44:56.721Z,82.60
2018-03-14T00:47:25.335Z,82.70
2018-03-14T00:49:53.059Z,82.70
2018-03-14T00:52:20.741Z,82.50
2018-03-14T00:54:48.585Z,82.50
2018-03-14T00:57:16.358Z,82.50
2018-03-14T00:59:44.493Z,82.40
2018-03-14T01:02:12.240Z,82.40
2018-03-14T01:04:40.869Z,82.40
2018-03-14T01:07:09.439Z,82.10
2018-03-14T01:09:37.199Z,82.20
2018-03-14T01:12:09.636Z,82.00
2018-03-14T01:14:37.475Z,82.00
2018-03-14T01:17:05.423Z,81.70
2018-03-14T01:19:33.972Z,81.80
2018-03-14T01:22:02.445Z,81.70
2018-03-14T01:24:30.676Z,81.80
2018-03-14T01:26:59.312Z,81.70
2018-03-14T01:29:28.397Z,81.60
2018-03-14T01:31:58.507Z,81.40
2018-03-14T01:34:26.570Z,81.40
2018-03-14T01:36:57.272Z,81.20
2018-03-14T01:39:26.660Z,81.10
2018-03-14T01:41:55.512Z,81.50
2018-03-14T01:44:28.098Z,81.50
2018-03-14T01:47:03.374Z,81.60
2018-03-14T01:49:31.672Z,81.30
2018-03-14T01:51:59.376Z,81.40
2018-03-14T01:54:27.727Z,81.20
2018-03-14T01:56:55.445Z,81.40
2018-03-14T01:59:24.928Z,81.60
2018-03-14T02:01:53.136Z,81.30
2018-03-14T02:04:21.096Z,81.10
2018-03-14T02:06:49.069Z,81.00
2018-03-14T02:09:17.646Z,80.50
2018-03-14T02:11:45.371Z,80.50
2018-03-14T02:14:13.191Z,80.40
2018-03-14T02:16:40.891Z,80.30
2018-03-14T02:19:08.584Z,80.40
2018-03-14T02:21:36.416Z,80.60
2018-03-14T02:24:04.135Z,80.70
2018-03-14T02:26:32.713Z,80.50
2018-03-14T02:29:01.206Z,80.40
2018-03-14T02:31:29.835Z,80.70
2018-03-14T02:33:57.951Z,80.60
2018-03-14T02:36:37.339Z,80.70
2018-03-14T02:39:05.144Z,80.60
2018-03-14T02:41:33.617Z,80.30
2018-03-14T02:44:02.331Z,80.30
2018-03-14T02:46:31.133Z,80.10
2018-03-14T02:48:58.989Z,80.00
2018-03-14T02:51:27.691Z,79.90
2018-03-14T02:53:55.332Z,80.20
2018-03-14T02:56:23.972Z,79.70
2018-03-14T02:58:53.701Z,79.60
2018-03-14T03:01:23.543Z,79.70
2018-03-14T03:03:51.277Z,79.80
2018-03-14T03:06:19.553Z,79.80
2018-03-14T03:08:47.334Z,80.20
2018-03-14T03:11:15.116Z,79.30
2018-03-14T03:13:43.831Z,79.70
2018-03-14T03:16:11.594Z,79.50
2018-03-14T03:18:39.609Z,79.40
2018-03-14T03:21:07.256Z,79.50
2018-03-14T03:23:34.991Z,79.50
2018-03-14T03:26:02.751Z,79.60
2018-03-14T03:28:30.537Z,79.70
2018-03-14T03:30:58.192Z,79.60
2018-03-14T03:33:26.065Z,79.80
2018-03-14T03:35:54.092Z,79.60
2018-03-14T03:38:22.187Z,79.50
2018-03-14T03:40:49.826Z,79.50
2018-03-14T03:43:17.741Z,79.60
2018-03-14T03:45:47.134Z,79.70
2018-03-14T03:48:15.028Z,79.60
2018-03-14T03:50:42.749Z,79.60
2018-03-14T03:53:10.371Z,79.60
2018-03-14T03:55:38.089Z,79.70
2018-03-14T03:58:05.829Z,79.90
2018-03-14T04:00:34.622Z,80.10
2018-03-14T04:03:03.140Z,80.50
2018-03-14T04:05:30.789Z,80.50
2018-03-14T04:07:58.881Z,80.40
2018-03-14T04:10:26.762Z,80.40
2018-03-14T04:12:54.520Z,80.50
2018-03-14T04:15:22.531Z,80.60
2018-03-14T04:17:50.431Z,80.60
2018-03-14T04:20:20.158Z,80.70
2018-03-14T04:22:48.247Z,80.90
2018-03-14T04:25:17.679Z,81.30
2018-03-14T04:27:45.736Z,81.30
2018-03-14T04:30:19.795Z,81.50
2018-03-14T04:32:47.425Z,81.60
2018-03-14T04:35:15.485Z,81.60
2018-03-14T04:37:45.671Z,81.50
2018-03-14T04:40:13.418Z,82.10
2018-03-14T04:42:41.113Z,81.60
2018-03-14T04:45:08.861Z,81.60
2018-03-14T04:47:36.530Z,81.80
2018-03-14T04:50:05.075Z,81.90
2018-03-14T04:52:32.915Z,81.90
2018-03-14T04:55:00.669Z,81.80
2018-03-14T04:57:28.797Z,82.00
2018-03-14T05:02:38.287Z,81.90
2018-03-14T05:05:06.144Z,82.00
2018-03-14T05:07:34.071Z,81.80
2018-03-14T05:10:02.100Z,82.50
2018-03-14T05:12:29.909Z,81.70
2018-03-14T05:14:57.629Z,81.60
2018-03-14T05:17:25.377Z,81.50
2018-03-14T05:22:59.155Z,81.50
2018-03-14T05:25:27.247Z,81.30
2018-03-14T05:27:55.722Z,81.70
2018-03-14T05:30:24.370Z,81.60
2018-03-14T05:32:52.384Z,81.60
2018-03-14T05:35:20.256Z,81.50
2018-03-14T05:37:48.151Z,81.30
2018-03-14T05:40:17.007Z,81.30
2018-03-14T05:42:45.068Z,81.20
2018-03-14T05:45:12.965Z,80.90
2018-03-14T05:47:40.640Z,81.00
2018-03-14T05:50:09.231Z,80.60
2018-03-14T05:52:37.232Z,80.70
2018-03-14T05:55:04.918Z,80.80
2018-03-14T05:57:32.767Z,80.90
2018-03-14T06:00:02.980Z,80.90
2018-03-14T06:02:30.659Z,80.90
2018-03-14T06:04:58.902Z,81.00
2018-03-14T06:07:28.215Z,81.30
2018-03-14T06:09:56.068Z,81.10
2018-03-14T06:12:23.785Z,81.30
2018-03-14T06:14:52.887Z,81.30
2018-03-14T06:17:21.471Z,81.30
2018-03-14T06:19:51.725Z,81.20
2018-03-14T06:22:19.421Z,81.30
2018-03-14T06:24:47.197Z,81.10
2018-03-14T06:27:16.154Z,81.40
2018-03-14T06:29:44.203Z,81.30
2018-03-14T06:32:12.534Z,81.30
2018-03-14T06:34:40.554Z,81.20
2018-03-14T06:37:08.415Z,81.10
2018-03-14T06:39:36.251Z,81.20
2018-03-14T06:42:04.545Z,81.30
2018-03-14T06:44:32.501Z,81.40
2018-03-14T06:47:00.170Z,81.60
2018-03-14T06:49:27.871Z,81.50
2018-03-14T06:51:55.664Z,81.60
2018-03-14T06:54:23.424Z,81.60
2018-03-14T06:56:51.152Z,81.80
2018-03-14T06:59:31.387Z,81.70
2018-03-14T07:02:10.816Z,81.60
2018-03-14T07:04:47.045Z,81.80
2018-03-14T07:07:15.871Z,81.70
2018-03-14T07:09:43.799Z,82.30
2018-03-14T07:12:11.633Z,81.70
2018-03-14T07:14:39.353Z,82.00
2018-03-14T07:17:11.196Z,81.90
2018-03-14T07:22:26.786Z,81.50
2018-03-14T07:24:54.493Z,81.30
2018-03-14T07:27:22.245Z,81.80
2018-03-14T07:29:50.063Z,81.20
2018-03-14T07:32:17.854Z,81.30
2018-03-14T07:34:46.853Z,81.10
2018-03-14T07:37:15.447Z,81.30
2018-03-14T07:39:44.743Z,81.30
2018-03-14T07:42:18.964Z,81.10
2018-03-14T07:44:47.024Z,81.10
2018-03-14T07:47:16.309Z,80.90
2018-03-14T07:49:44.080Z,81.40
2018-03-14T07:52:11.856Z,80.70
2018-03-14T07:54:39.653Z,80.40
2018-03-14T07:57:07.433Z,80.30
2018-03-14T07:59:35.359Z,80.10
2018-03-14T08:02:03.846Z,79.50
2018-03-14T08:04:32.999Z,79.40
2018-03-14T08:07:00.711Z,79.40
2018-03-14T08:09:28.478Z,79.20
2018-03-14T08:11:57.166Z,79.40
2018-03-14T08:14:25.359Z,79.70
2018-03-14T08:16:53.793Z,79.20
2018-03-14T08:19:25.647Z,78.70
2018-03-14T08:21:54.420Z,77.70
2018-03-14T08:24:22.238Z,77.60
2018-03-14T08:26:50.029Z,77.40
2018-03-14T08:29:17.747Z,76.90
2018-03-14T08:31:59.252Z,75.80
2018-03-14T08:34:27.915Z,75.80
2018-03-14T08:36:55.674Z,75.00
2018-03-14T08:39:24.189Z,74.40
2018-03-14T08:41:52.726Z,75.40
2018-03-14T08:44:20.894Z,75.40
2018-03-14T08:46:49.031Z,75.50
2018-03-14T08:49:16.806Z,74.60
2018-03-14T08:51:44.528Z,73.30
2018-03-14T08:54:12.387Z,72.00
2018-03-14T08:56:55.242Z,72.10
2018-03-14T08:59:23.036Z,70.40
2018-03-14T09:01:57.488Z,68.80
2018-03-14T09:04:25.575Z,69.90
2018-03-14T09:06:58.658Z,70.70
2018-03-14T09:12:13.322Z,70.30
2018-03-14T09:14:41.146Z,69.50
2018-03-14T09:17:10.083Z,69.60
2018-03-14T09:19:38.317Z,69.70
2018-03-14T09:22:06.097Z,70.50
2018-03-14T09:24:34.890Z,68.70
2018-03-14T09:27:02.790Z,66.40
2018-03-14T09:29:31.014Z,67.80
2018-03-14T09:32:13.510Z,66.50
2018-03-14T09:34:42.304Z,66.00
2018-03-14T09:37:10.735Z,65.60
2018-03-14T09:39:38.552Z,60.60
2018-03-14T09:42:06.393Z,61.90
2018-03-14T09:44:36.082Z,59.90
2018-03-14T09:47:07.389Z,57.90
2018-03-14T09:49:35.298Z,58.20
2018-03-14T09:52:03.134Z,58.90
2018-03-14T09:54:31.478Z,55.80
2018-03-14T09:56:59.535Z,53.00
2018-03-14T09:59:29.582Z,54.50
2018-03-14T10:01:57.366Z,53.60
2018-03-14T10:04:25.060Z,53.60
2018-03-14T10:06:55.577Z,55.50
2018-03-14T10:09:23.327Z,56.20
2018-03-14T10:11:52.432Z,55.80
2018-03-14T10:14:20.232Z,55.50
2018-03-14T10:16:47.962Z,54.90
2018-03-14T10:19:15.776Z,57.20
2018-03-14T10:21:43.584Z,56.60
2018-03-14T10:24:11.663Z,55.30
2018-03-14T10:26:39.642Z,55.20
2018-03-14T10:29:07.470Z,55.60
2018-03-14T10:31:39.019Z,52.90
2018-03-14T10:36:45.412Z,54.10
2018-03-14T10:39:13.173Z,55.00
2018-03-14T10:44:37.824Z,55.30
2018-03-14T10:47:06.593Z,53.70
2018-03-14T10:49:38.419Z,54.90
2018-03-14T10:52:30.184Z,50.40
2018-03-14T10:54:58.120Z,52.10
2018-03-14T10:57:29.252Z,54.20
2018-03-14T10:59:58.158Z,55.10
2018-03-14T11:02:30.582Z,49.10
2018-03-14T11:04:58.464Z,48.90
2018-03-14T11:07:26.344Z,50.20
2018-03-14T11:09:54.442Z,49.80
2018-03-14T11:12:22.163Z,49.60
2018-03-14T11:14:50.370Z,50.90
2018-03-14T11:17:19.059Z,53.60
2018-03-14T11:19:46.890Z,53.60
2018-03-14T11:22:14.795Z,54.90
2018-03-14T11:24:43.311Z,55.90
2018-03-14T11:27:11.138Z,56.00
2018-03-14T11:29:40.580Z,53.80
2018-03-14T11:32:08.980Z,53.80
2018-03-14T11:34:36.803Z,52.80
2018-03-14T11:37:05.648Z,51.80
2018-03-14T11:39:33.654Z,54.60
2018-03-14T11:42:02.070Z,49.90
2018-03-14T11:44:29.908Z,50.20
2018-03-14T11:46:57.619Z,50.10
2018-03-14T11:49:25.977Z,49.00
2018-03-14T11:51:53.727Z,52.50
2018-03-14T11:54:21.442Z,48.80
2018-03-14T11:56:49.156Z,54.60
2018-03-14T11:59:25.374Z,51.50
2018-03-14T12:01:53.960Z,48.30
2018-03-14T12:04:23.353Z,50.20
2018-03-14T12:06:51.083Z,50.20
2018-03-14T12:09:18.765Z,50.20
2018-03-14T12:11:47.441Z,47.80
2018-03-14T12:14:15.403Z,51.80
2018-03-14T12:16:43.168Z,48.30
2018-03-14T12:19:10.929Z,51.90
2018-03-14T12:21:38.747Z,52.70
2018-03-14T12:24:06.503Z,49.80
2018-03-14T12:26:35.158Z,50.50
2018-03-14T12:29:03.219Z,50.50
2018-03-14T12:31:31.272Z,49.60
2018-03-14T12:33:59.084Z,48.20
2018-03-14T12:36:28.387Z,49.80
2018-03-14T12:38:57.036Z,51.10
2018-03-14T12:41:24.811Z,51.10
2018-03-14T12:43:52.677Z,47.90
2018-03-14T12:46:21.146Z,48.00
2018-03-14T12:48:49.571Z,51.40
2018-03-14T12:51:17.757Z,49.00
2018-03-14T12:53:46.177Z,49.90
2018-03-14T12:56:14.913Z,48.00
2018-03-14T12:58:42.876Z,51.60
2018-03-14T13:01:10.616Z,51.20
2018-03-14T13:03:39.359Z,51.10
2018-03-14T13:06:08.038Z,50.10
2018-03-14T13:08:36.851Z,48.20
2018-03-14T13:11:05.442Z,49.40
2018-03-14T13:13:33.391Z,49.80
2018-03-14T13:16:01.175Z,48.80
2018-03-14T13:18:29.531Z,46.20
2018-03-14T13:20:57.407Z,46.50
2018-03-14T13:23:25.205Z,49.70
2018-03-14T13:25:53.030Z,44.80
2018-03-14T13:28:22.072Z,44.20
2018-03-14T13:30:54.356Z,44.50
2018-03-14T13:33:22.850Z,46.00
2018-03-14T13:35:50.589Z,46.00
2018-03-14T13:38:19.178Z,43.80
2018-03-14T13:40:47.548Z,43.80
2018-03-14T13:43:16.404Z,44.40
2018-03-14T13:45:44.814Z,44.20
2018-03-14T13:48:13.082Z,43.20
2018-03-14T13:50:41.047Z,43.90
2018-03-14T13:53:12.351Z,47.50
2018-03-14T13:55:40.355Z,47.60
2018-03-14T13:58:09.990Z,46.00
2018-03-14T14:00:38.202Z,46.60
2018-03-14T14:03:07.442Z,45.30
2018-03-14T14:06:06.664Z,47.20
2018-03-14T14:08:54.695Z,46.70
2018-03-14T14:11:24.133Z,45.30
2018-03-14T14:13:52.773Z,45.20
2018-03-14T14:16:27.421Z,47.40
2018-03-14T14:19:02.115Z,47.20
2018-03-14T14:21:41.591Z,47.20
2018-03-14T14:24:09.557Z,51.40
2018-03-14T14:26:37.382Z,51.10
2018-03-14T14:29:08.748Z,50.00
2018-03-14T14:31:36.527Z,52.50
2018-03-14T14:34:06.141Z,50.30
2018-03-14T14:36:41.371Z,52.20
2018-03-14T14:39:09.181Z,54.40
2018-03-14T14:41:36.946Z,51.60
2018-03-14T14:44:05.437Z,51.50
2018-03-14T14:46:35.283Z,51.20
2018-03-14T14:49:03.142Z,49.30
2018-03-14T14:51:31.787Z,49.50
2018-03-14T14:54:01.679Z,49.50
2018-03-14T14:56:30.095Z,51.00
2018-03-14T14:58:59.346Z,51.10
2018-03-14T15:01:28.410Z,50.40
2018-03-14T15:03:56.250Z,51.60
2018-03-14T15:06:24.325Z,48.60
2018-03-14T15:08:55.813Z,50.30
2018-03-14T15:14:07.869Z,52.20
2018-03-14T15:16:39.774Z,52.20
2018-03-14T15:19:09.396Z,50.10
2018-03-14T15:21:37.393Z,53.10
2018-03-14T15:24:14.656Z,50.20
2018-03-14T15:26:48.993Z,51.90
2018-03-14T15:29:27.008Z,51.70
2018-03-14T15:31:56.076Z,49.10
2018-03-14T15:34:39.372Z,50.80
2018-03-14T15:37:07.736Z,50.80
2018-03-14T15:39:42.525Z,54.00
2018-03-14T15:45:50.696Z,53.50
2018-03-14T15:48:22.098Z,51.80
2018-03-14T15:50:49.938Z,52.80
2018-03-14T15:53:21.897Z,55.00
2018-03-14T15:55:51.805Z,55.10
2018-03-14T15:58:38.987Z,53.90
2018-03-14T16:01:11.711Z,51.60
2018-03-14T16:03:39.470Z,50.90
2018-03-14T16:06:08.586Z,53.20
2018-03-14T16:08:49.821Z,51.30
2018-03-14T16:11:24.885Z,51.30
2018-03-14T16:13:53.480Z,51.60
2018-03-14T16:16:23.067Z,49.70
2018-03-14T16:18:52.282Z,51.10
2018-03-14T16:21:20.358Z,51.20
2018-03-14T16:23:51.817Z,50.20
2018-03-14T16:26:21.302Z,52.50
2018-03-14T16:28:49.884Z,51.80
2018-03-14T16:31:18.389Z,51.70
2018-03-14T16:33:57.642Z,52.20
2018-03-14T16:36:40.282Z,52.10
2018-03-14T16:39:14.863Z,51.40
2018-03-14T16:44:24.438Z,54.00
2018-03-14T16:46:52.351Z,53.90
2018-03-14T16:49:27.020Z,53.70
2018-03-14T16:51:56.182Z,53.20
2018-03-14T16:54:31.703Z,52.70
2018-03-14T16:57:03.924Z,52.90
2018-03-14T16:59:35.451Z,54.00
2018-03-14T17:02:04.956Z,55.20
2018-03-14T17:04:40.922Z,54.80
2018-03-14T17:07:08.764Z,54.60
2018-03-14T17:09:41.891Z,54.20
2018-03-14T17:12:19.283Z,55.00
2018-03-14T17:14:47.036Z,54.80
2018-03-14T17:17:15.492Z,54.30
2018-03-14T17:19:43.242Z,54.20
2018-03-14T17:22:11.143Z,54.50
2018-03-14T17:24:39.712Z,55.20
2018-03-14T17:27:09.120Z,57.30
2018-03-14T17:29:40.781Z,57.00
2018-03-14T17:32:08.596Z,57.50
2018-03-14T17:34:38.028Z,56.10
2018-03-14T17:37:06.467Z,56.40
2018-03-14T17:39:37.463Z,55.90
2018-03-14T17:42:07.171Z,56.00
2018-03-14T17:44:34.840Z,56.00
2018-03-14T17:47:03.638Z,56.70
2018-03-14T17:49:31.401Z,56.70
2018-03-14T17:52:01.151Z,57.80
2018-03-14T17:54:32.458Z,57.60
2018-03-14T17:57:03.967Z,56.30
2018-03-14T17:59:35.821Z,56.50
2018-03-14T18:02:03.622Z,57.50
2018-03-14T18:04:31.576Z,57.00
2018-03-14T18:06:59.575Z,57.70
2018-03-14T18:09:28.066Z,58.20
2018-03-14T18:11:55.929Z,58.10
2018-03-14T18:14:23.887Z,58.90
2018-03-14T18:16:53.146Z,61.10
2018-03-14T18:19:21.060Z,61.00
2018-03-14T18:21:48.851Z,59.80
2018-03-14T18:24:19.942Z,59.80
2018-03-14T18:26:47.739Z,61.10
2018-03-14T18:29:22.880Z,61.80
2018-03-14T18:31:50.817Z,61.20
2018-03-14T18:34:19.446Z,59.60
2018-03-14T18:36:47.255Z,59.60
2018-03-14T18:39:15.045Z,59.90
2018-03-14T18:41:44.458Z,60.60
2018-03-14T18:44:13.014Z,61.10
2018-03-14T18:46:42.368Z,61.00
2018-03-14T18:49:10.930Z,61.00
2018-03-14T18:51:39.897Z,60.50
2018-03-14T18:54:07.758Z,61.10
2018-03-14T18:56:38.973Z,60.70
2018-03-14T18:59:06.764Z,61.40
2018-03-14T19:01:34.781Z,60.90
2018-03-14T19:04:03.911Z,61.90
2018-03-14T19:06:31.626Z,61.10
2018-03-14T19:08:59.443Z,60.50
2018-03-14T19:11:31.671Z,61.80
2018-03-14T19:13:59.685Z,61.80
2018-03-14T19:16:27.957Z,61.70
2018-03-14T19:18:56.461Z,60.80
2018-03-14T19:21:27.098Z,60.00
2018-03-14T19:23:59.685Z,60.90
2018-03-14T19:26:28.158Z,60.70
2018-03-14T19:29:03.342Z,61.80
2018-03-14T19:31:49.204Z,60.90
2018-03-14T19:34:22.288Z,62.80
2018-03-14T19:39:37.761Z,63.50
2018-03-14T19:42:08.779Z,63.10
2018-03-14T19:44:37.583Z,62.90
2018-03-14T19:47:07.549Z,64.10
2018-03-14T19:49:39.790Z,64.60
2018-03-14T19:52:07.706Z,63.50
2018-03-14T19:54:35.596Z,63.30
2018-03-14T19:57:03.538Z,63.10
2018-03-14T19:59:35.231Z,63.40
2018-03-14T20:02:04.063Z,63.70
2018-03-14T20:04:31.858Z,63.60
2018-03-14T20:06:59.594Z,62.70
2018-03-14T20:09:29.075Z,63.40
2018-03-14T20:12:01.057Z,62.80
2018-03-14T20:14:29.093Z,63.30
2018-03-14T20:16:59.757Z,62.90
2018-03-14T20:19:27.644Z,62.90
2018-03-14T20:21:56.410Z,63.70
2018-03-14T20:24:24.172Z,63.70
2018-03-14T20:26:52.241Z,64.70
2018-03-14T20:29:21.232Z,64.40
2018-03-14T20:31:50.126Z,63.70
2018-03-14T20:34:17.963Z,64.70
2018-03-14T20:36:50.271Z,64.50
2018-03-14T20:39:20.322Z,65.30
2018-03-14T20:42:17.272Z,65.70
2018-03-14T20:44:49.897Z,65.10
2018-03-14T20:47:17.901Z,65.80
2018-03-14T20:49:46.989Z,66.00
2018-03-14T20:52:16.265Z,65.30
2018-03-14T20:54:44.296Z,65.60
2018-03-14T20:57:13.840Z,65.80
2018-03-14T20:59:43.705Z,66.30
2018-03-14T21:02:11.669Z,66.50
2018-03-14T21:04:42.951Z,66.80
2018-03-14T21:07:18.426Z,66.00
2018-03-14T21:09:47.600Z,66.50
2018-03-14T21:12:19.464Z,66.60
2018-03-14T21:14:48.054Z,66.40
2018-03-14T21:17:15.907Z,66.80
2018-03-14T21:19:45.607Z,66.70
2018-03-14T21:22:18.216Z,66.70
2018-03-14T21:24:46.099Z,66.60
2018-03-14T21:27:14.338Z,67.20
2018-03-14T21:29:42.171Z,66.90
2018-03-14T21:32:10.901Z,66.60
2018-03-14T21:34:38.861Z,67.20
2018-03-14T21:37:07.319Z,67.40
2018-03-14T21:39:35.990Z,67.70
2018-03-14T21:42:05.033Z,67.50
2018-03-14T21:44:33.934Z,67.70
2018-03-14T21:47:08.776Z,68.40
2018-03-14T21:49:36.540Z,68.40
2018-03-14T21:52:04.423Z,68.20
2018-03-14T21:54:35.047Z,68.60
2018-03-14T21:57:14.569Z,68.60
2018-03-14T21:59:43.377Z,68.30
2018-03-14T22:02:14.783Z,68.50
2018-03-14T22:04:43.348Z,68.40
2018-03-14T22:07:12.012Z,68.70
2018-03-14T22:09:41.056Z,68.50
2018-03-14T22:12:08.967Z,68.30
2018-03-14T22:14:38.934Z,68.10
2018-03-14T22:17:07.023Z,67.80
2018-03-14T22:19:50.937Z,67.40
2018-03-14T22:22:26.017Z,67.80
2018-03-14T22:24:56.395Z,67.50
2018-03-14T22:30:08.357Z,67.80
2018-03-14T22:32:36.052Z,67.80
2018-03-14T22:35:05.599Z,68.30
2018-03-14T22:37:34.500Z,68.30
2018-03-14T22:40:05.362Z,68.10
2018-03-14T22:42:41.289Z,68.50
2018-03-14T22:45:14.500Z,68.20
2018-03-14T22:47:43.215Z,68.00
2018-03-14T22:50:26.438Z,68.20
2018-03-14T22:52:55.013Z,67.80
2018-03-14T22:55:26.840Z,67.80
2018-03-14T22:58:06.983Z,67.70
2018-03-14T23:00:53.686Z,67.70
2018-03-14T23:03:36.276Z,67.80
2018-03-14T23:06:24.834Z,67.60
2018-03-14T23:08:55.814Z,67.70
2018-03-14T23:11:25.859Z,67.90
2018-03-14T23:13:56.301Z,67.70
2018-03-14T23:16:31.743Z,67.90
2018-03-14T23:19:00.854Z,67.70
2018-03-14T23:21:29.170Z,67.60
2018-03-14T23:23:57.962Z,67.00
2018-03-14T23:26:25.963Z,67.50
2018-03-14T23:28:53.789Z,67.90
2018-03-14T23:31:22.722Z,67.70
2018-03-14T23:33:51.406Z,68.10
2018-03-14T23:36:20.123Z,68.00
2018-03-14T23:38:47.808Z,67.70
2018-03-14T23:41:24.071Z,68.20
2018-03-14T23:43:52.152Z,68.40
2018-03-14T23:46:20.113Z,67.60
2018-03-14T23:48:47.986Z,67.70
2018-03-14T23:51:15.772Z,68.20
2018-03-14T23:53:44.551Z,68.00
2018-03-14T23:56:16.680Z,68.20
2018-03-14T23:58:45.740Z,67.50
